sensor_id;sensor_type;location;lat;lon;timestamp;pressure;altitude;pressure_sealevel;temperature;humidity
12757;BME280;31601;48.042;12.240;2023-02-03T00:01:05;97266.81;;;5.86;72.39
12757;BME280;31601;48.042;12.240;2023-02-03T00:03:32;97268.13;;;5.80;72.41
12757;BME280;31601;48.042;12.240;2023-02-03T00:05:59;97265.28;;;5.83;72.52
12757;BME280;31601;48.042;12.240;2023-02-03T00:08:25;97270.63;;;5.82;72.41
12757;BME280;31601;48.042;12.240;2023-02-03T00:10:52;97263.34;;;5.97;71.84
12757;BME280;31601;48.042;12.240;2023-02-03T00:13:20;97263.63;;;6.03;71.85
12757;BME280;31601;48.042;12.240;2023-02-03T00:15:48;97261.16;;;6.02;71.80
12757;BME280;31601;48.042;12.240;2023-02-03T00:18:14;97260.63;;;5.87;72.52
12757;BME280;31601;48.042;12.240;2023-02-03T00:20:40;97263.44;;;5.95;71.85
12757;BME280;31601;48.042;12.240;2023-02-03T00:23:08;97261.72;;;6.05;72.04
12757;BME280;31601;48.042;12.240;2023-02-03T00:25:35;97255.53;;;5.97;72.12
12757;BME280;31601;48.042;12.240;2023-02-03T00:28:02;97255.03;;;5.91;71.92
12757;BME280;31601;48.042;12.240;2023-02-03T00:30:28;97256.44;;;5.96;71.19
12757;BME280;31601;48.042;12.240;2023-02-03T00:32:56;97244.50;;;6.14;70.90
12757;BME280;31601;48.042;12.240;2023-02-03T00:35:22;97251.22;;;5.96;71.65
12757;BME280;31601;48.042;12.240;2023-02-03T00:37:52;97239.53;;;6.11;71.23
12757;BME280;31601;48.042;12.240;2023-02-03T00:40:20;97238.47;;;6.14;70.95
12757;BME280;31601;48.042;12.240;2023-02-03T00:42:47;97225.25;;;6.05;71.06
12757;BME280;31601;48.042;12.240;2023-02-03T00:45:14;97230.72;;;6.02;71.08
12757;BME280;31601;48.042;12.240;2023-02-03T00:47:40;97228.31;;;6.20;70.48
12757;BME280;31601;48.042;12.240;2023-02-03T00:50:09;97224.78;;;6.31;70.36
12757;BME280;31601;48.042;12.240;2023-02-03T00:52:36;97229.53;;;6.16;70.26
12757;BME280;31601;48.042;12.240;2023-02-03T00:55:03;97229.25;;;6.09;70.70
12757;BME280;31601;48.042;12.240;2023-02-03T00:57:29;97230.78;;;6.12;70.32
12757;BME280;31601;48.042;12.240;2023-02-03T00:59:56;97235.78;;;6.04;70.03
12757;BME280;31601;48.042;12.240;2023-02-03T01:02:23;97232.94;;;6.07;70.34
12757;BME280;31601;48.042;12.240;2023-02-03T01:04:50;97240.56;;;5.99;70.40
12757;BME280;31601;48.042;12.240;2023-02-03T01:07:18;97231.03;;;6.09;70.30
12757;BME280;31601;48.042;12.240;2023-02-03T01:09:44;97240.09;;;6.15;69.88
12757;BME280;31601;48.042;12.240;2023-02-03T01:12:11;97232.84;;;6.18;69.75
12757;BME280;31601;48.042;12.240;2023-02-03T01:14:37;97239.03;;;6.27;69.70
12757;BME280;31601;48.042;12.240;2023-02-03T01:17:04;97224.59;;;6.13;69.88
12757;BME280;31601;48.042;12.240;2023-02-03T01:19:30;97233.63;;;6.09;69.53
12757;BME280;31601;48.042;12.240;2023-02-03T01:21:57;97230.44;;;6.05;70.03
12757;BME280;31601;48.042;12.240;2023-02-03T01:24:25;97240.09;;;6.15;69.72
12757;BME280;31601;48.042;12.240;2023-02-03T01:26:51;97229.75;;;6.34;68.95
12757;BME280;31601;48.042;12.240;2023-02-03T01:29:17;97224.25;;;6.27;68.57
12757;BME280;31601;48.042;12.240;2023-02-03T01:31:44;97223.78;;;6.22;69.09
12757;BME280;31601;48.042;12.240;2023-02-03T01:34:12;97224.78;;;6.21;69.34
12757;BME280;31601;48.042;12.240;2023-02-03T01:36:40;97231.63;;;6.22;68.88
12757;BME280;31601;48.042;12.240;2023-02-03T01:39:07;97229.19;;;6.31;68.39
12757;BME280;31601;48.042;12.240;2023-02-03T01:41:36;97225.19;;;6.26;68.46
12757;BME280;31601;48.042;12.240;2023-02-03T01:47:12;97220.50;;;6.20;68.82
12757;BME280;31601;48.042;12.240;2023-02-03T01:49:43;97221.44;;;6.09;68.87
12757;BME280;31601;48.042;12.240;2023-02-03T01:52:12;97215.97;;;6.13;68.47
12757;BME280;31601;48.042;12.240;2023-02-03T01:54:41;97225.06;;;6.28;68.56
12757;BME280;31601;48.042;12.240;2023-02-03T01:57:15;97216.63;;;6.05;68.71
12757;BME280;31601;48.042;12.240;2023-02-03T01:59:42;97213.63;;;6.19;68.26
12757;BME280;31601;48.042;12.240;2023-02-03T02:02:10;97213.56;;;6.31;68.08
12757;BME280;31601;48.042;12.240;2023-02-03T02:04:45;97206.53;;;6.21;68.08
12757;BME280;31601;48.042;12.240;2023-02-03T02:07:15;97206.69;;;6.30;68.38
12757;BME280;31601;48.042;12.240;2023-02-03T02:09:42;97207.94;;;6.35;67.55
12757;BME280;31601;48.042;12.240;2023-02-03T02:12:11;97209.69;;;6.25;68.06
12757;BME280;31601;48.042;12.240;2023-02-03T02:14:38;97205.25;;;6.06;68.31
12757;BME280;31601;48.042;12.240;2023-02-03T02:17:11;97199.63;;;6.11;68.22
12757;BME280;31601;48.042;12.240;2023-02-03T02:20:05;97202.63;;;6.06;67.71
12757;BME280;31601;48.042;12.240;2023-02-03T02:22:53;97204.09;;;6.30;67.18
12757;BME280;31601;48.042;12.240;2023-02-03T02:25:41;97198.19;;;6.27;67.38
12757;BME280;31601;48.042;12.240;2023-02-03T02:34:18;97208.94;;;6.13;67.16
12757;BME280;31601;48.042;12.240;2023-02-03T02:36:54;97210.25;;;6.28;67.10
12757;BME280;31601;48.042;12.240;2023-02-03T02:39:32;97208.69;;;6.16;67.43
12757;BME280;31601;48.042;12.240;2023-02-03T02:42:06;97216.78;;;6.13;67.49
12757;BME280;31601;48.042;12.240;2023-02-03T02:44:38;97217.91;;;6.20;67.06
12757;BME280;31601;48.042;12.240;2023-02-03T02:47:16;97211.75;;;6.21;66.67
12757;BME280;31601;48.042;12.240;2023-02-03T02:49:47;97218.91;;;6.39;66.33
12757;BME280;31601;48.042;12.240;2023-02-03T02:52:17;97214.13;;;6.44;65.91
12757;BME280;31601;48.042;12.240;2023-02-03T02:54:47;97216.97;;;6.31;66.68
12757;BME280;31601;48.042;12.240;2023-02-03T02:57:16;97212.72;;;6.30;66.79
12757;BME280;31601;48.042;12.240;2023-02-03T02:59:44;97211.56;;;6.13;66.51
12757;BME280;31601;48.042;12.240;2023-02-03T03:02:12;97210.28;;;6.38;65.85
12757;BME280;31601;48.042;12.240;2023-02-03T03:04:39;97202.34;;;6.40;65.92
12757;BME280;31601;48.042;12.240;2023-02-03T03:07:09;97206.47;;;6.52;65.63
12757;BME280;31601;48.042;12.240;2023-02-03T03:09:40;97202.28;;;6.30;66.30
12757;BME280;31601;48.042;12.240;2023-02-03T03:12:11;97200.41;;;6.42;65.83
12757;BME280;31601;48.042;12.240;2023-02-03T03:14:42;97203.41;;;6.37;65.81
12757;BME280;31601;48.042;12.240;2023-02-03T03:17:15;97191.50;;;6.54;65.08
12757;BME280;31601;48.042;12.240;2023-02-03T03:19:49;97207.41;;;6.41;66.01
12757;BME280;31601;48.042;12.240;2023-02-03T03:22:19;97207.00;;;6.46;65.02
12757;BME280;31601;48.042;12.240;2023-02-03T03:24:54;97189.84;;;6.53;65.04
12757;BME280;31601;48.042;12.240;2023-02-03T03:27:27;97191.66;;;6.53;65.17
12757;BME280;31601;48.042;12.240;2023-02-03T03:29:57;97189.44;;;6.48;65.16
12757;BME280;31601;48.042;12.240;2023-02-03T03:32:26;97199.06;;;6.57;64.60
12757;BME280;31601;48.042;12.240;2023-02-03T03:34:55;97207.03;;;6.56;64.68
12757;BME280;31601;48.042;12.240;2023-02-03T03:37:28;97204.69;;;6.53;64.87
12757;BME280;31601;48.042;12.240;2023-02-03T03:39:58;97201.00;;;6.55;65.14
12757;BME280;31601;48.042;12.240;2023-02-03T03:42:28;97201.25;;;6.52;65.27
12757;BME280;31601;48.042;12.240;2023-02-03T03:45:01;97202.75;;;6.45;64.40
12757;BME280;31601;48.042;12.240;2023-02-03T03:47:34;97190.03;;;6.61;64.39
12757;BME280;31601;48.042;12.240;2023-02-03T03:50:05;97182.03;;;6.43;65.36
12757;BME280;31601;48.042;12.240;2023-02-03T03:52:34;97164.88;;;6.41;65.20
12757;BME280;31601;48.042;12.240;2023-02-03T03:55:05;97167.47;;;6.41;65.40
12757;BME280;31601;48.042;12.240;2023-02-03T03:57:35;97177.75;;;6.42;65.54
12757;BME280;31601;48.042;12.240;2023-02-03T04:00:07;97160.91;;;6.37;65.58
12757;BME280;31601;48.042;12.240;2023-02-03T04:02:38;97161.72;;;6.37;65.62
12757;BME280;31601;48.042;12.240;2023-02-03T04:05:06;97167.66;;;6.49;65.03
12757;BME280;31601;48.042;12.240;2023-02-03T04:07:37;97158.13;;;6.28;66.01
12757;BME280;31601;48.042;12.240;2023-02-03T04:10:06;97172.69;;;6.41;65.14
12757;BME280;31601;48.042;12.240;2023-02-03T04:12:37;97176.94;;;6.32;65.44
12757;BME280;31601;48.042;12.240;2023-02-03T04:15:04;97180.63;;;6.39;65.56
12757;BME280;31601;48.042;12.240;2023-02-03T04:17:31;97187.91;;;6.36;65.47
12757;BME280;31601;48.042;12.240;2023-02-03T04:20:01;97195.19;;;6.42;65.52
12757;BME280;31601;48.042;12.240;2023-02-03T04:22:28;97189.03;;;6.43;65.19
12757;BME280;31601;48.042;12.240;2023-02-03T04:24:54;97200.13;;;6.35;65.41
12757;BME280;31601;48.042;12.240;2023-02-03T04:27:23;97194.38;;;6.51;64.58
12757;BME280;31601;48.042;12.240;2023-02-03T04:29:49;97206.03;;;6.37;64.97
12757;BME280;31601;48.042;12.240;2023-02-03T04:32:16;97210.84;;;6.42;64.52
12757;BME280;31601;48.042;12.240;2023-02-03T04:34:42;97212.63;;;6.51;64.39
12757;BME280;31601;48.042;12.240;2023-02-03T04:37:10;97210.19;;;6.59;64.03
12757;BME280;31601;48.042;12.240;2023-02-03T04:39:37;97204.28;;;6.67;63.66
12757;BME280;31601;48.042;12.240;2023-02-03T04:42:03;97205.91;;;6.49;64.08
12757;BME280;31601;48.042;12.240;2023-02-03T04:44:30;97202.91;;;6.53;63.67
12757;BME280;31601;48.042;12.240;2023-02-03T04:46:56;97186.16;;;6.56;63.51
12757;BME280;31601;48.042;12.240;2023-02-03T04:49:23;97173.53;;;6.61;63.18
12757;BME280;31601;48.042;12.240;2023-02-03T04:51:49;97193.03;;;6.57;63.21
12757;BME280;31601;48.042;12.240;2023-02-03T04:54:17;97215.25;;;6.51;63.34
12757;BME280;31601;48.042;12.240;2023-02-03T04:56:43;97227.59;;;6.49;63.35
12757;BME280;31601;48.042;12.240;2023-02-03T04:59:10;97232.22;;;6.36;63.35
12757;BME280;31601;48.042;12.240;2023-02-03T05:01:36;97236.09;;;6.51;63.19
12757;BME280;31601;48.042;12.240;2023-02-03T05:04:03;97235.97;;;6.43;63.14
12757;BME280;31601;48.042;12.240;2023-02-03T05:06:29;97242.25;;;6.50;62.84
12757;BME280;31601;48.042;12.240;2023-02-03T05:08:57;97241.91;;;6.65;62.84
12757;BME280;31601;48.042;12.240;2023-02-03T05:11:25;97236.69;;;6.65;62.55
12757;BME280;31601;48.042;12.240;2023-02-03T05:13:54;97227.22;;;6.63;62.48
12757;BME280;31601;48.042;12.240;2023-02-03T05:16:20;97222.50;;;6.07;63.02
12757;BME280;31601;48.042;12.240;2023-02-03T05:18:47;97228.28;;;6.61;62.01
12757;BME280;31601;48.042;12.240;2023-02-03T05:21:13;97221.44;;;6.60;62.65
12757;BME280;31601;48.042;12.240;2023-02-03T05:23:40;97220.47;;;6.61;62.19
12757;BME280;31601;48.042;12.240;2023-02-03T05:26:06;97207.84;;;6.56;62.56
12757;BME280;31601;48.042;12.240;2023-02-03T05:28:34;97210.44;;;6.56;62.28
12757;BME280;31601;48.042;12.240;2023-02-03T05:31:01;97221.16;;;6.53;62.29
12757;BME280;31601;48.042;12.240;2023-02-03T05:33:28;97217.72;;;6.43;62.06
12757;BME280;31601;48.042;12.240;2023-02-03T05:35:54;97210.31;;;6.48;62.36
12757;BME280;31601;48.042;12.240;2023-02-03T05:38:23;97208.25;;;6.52;62.00
12757;BME280;31601;48.042;12.240;2023-02-03T05:40:50;97207.22;;;6.33;62.50
12757;BME280;31601;48.042;12.240;2023-02-03T05:43:36;97201.47;;;6.30;62.91
12757;BME280;31601;48.042;12.240;2023-02-03T05:46:04;97199.47;;;6.43;61.95
12757;BME280;31601;48.042;12.240;2023-02-03T05:48:31;97198.25;;;6.67;61.58
12757;BME280;31601;48.042;12.240;2023-02-03T05:50:58;97197.00;;;6.61;61.94
12757;BME280;31601;48.042;12.240;2023-02-03T05:53:25;97199.59;;;6.51;62.17
12757;BME280;31601;48.042;12.240;2023-02-03T05:55:52;97184.09;;;6.40;62.29
12757;BME280;31601;48.042;12.240;2023-02-03T05:58:18;97189.72;;;6.55;61.87
12757;BME280;31601;48.042;12.240;2023-02-03T06:00:46;97194.38;;;6.51;61.99
12757;BME280;31601;48.042;12.240;2023-02-03T06:03:13;97191.81;;;6.71;61.46
12757;BME280;31601;48.042;12.240;2023-02-03T06:05:39;97204.72;;;6.72;61.30
12757;BME280;31601;48.042;12.240;2023-02-03T06:08:07;97201.53;;;6.59;61.41
12757;BME280;31601;48.042;12.240;2023-02-03T06:10:36;97205.50;;;6.53;61.90
12757;BME280;31601;48.042;12.240;2023-02-03T06:13:07;97233.34;;;6.43;61.73
12757;BME280;31601;48.042;12.240;2023-02-03T06:15:34;97222.94;;;6.53;61.59
12757;BME280;31601;48.042;12.240;2023-02-03T06:18:02;97210.63;;;6.65;61.27
12757;BME280;31601;48.042;12.240;2023-02-03T06:20:29;97217.31;;;6.48;61.23
12757;BME280;31601;48.042;12.240;2023-02-03T06:22:55;97225.53;;;6.53;61.17
12757;BME280;31601;48.042;12.240;2023-02-03T06:25:22;97230.09;;;6.60;61.20
12757;BME280;31601;48.042;12.240;2023-02-03T06:27:48;97234.22;;;6.73;60.36
12757;BME280;31601;48.042;12.240;2023-02-03T06:30:15;97226.34;;;6.53;61.11
12757;BME280;31601;48.042;12.240;2023-02-03T06:32:42;97240.94;;;6.66;60.74
12757;BME280;31601;48.042;12.240;2023-02-03T06:35:13;97239.38;;;6.53;61.32
12757;BME280;31601;48.042;12.240;2023-02-03T06:37:42;97236.91;;;6.42;60.82
12757;BME280;31601;48.042;12.240;2023-02-03T06:40:10;97245.94;;;6.38;61.43
12757;BME280;31601;48.042;12.240;2023-02-03T06:42:37;97219.91;;;6.48;60.78
12757;BME280;31601;48.042;12.240;2023-02-03T06:45:04;97236.38;;;6.48;61.20
12757;BME280;31601;48.042;12.240;2023-02-03T06:47:31;97233.66;;;6.59;60.87
12757;BME280;31601;48.042;12.240;2023-02-03T06:49:57;97227.59;;;6.49;60.96
12757;BME280;31601;48.042;12.240;2023-02-03T06:52:25;97227.75;;;6.57;60.71
12757;BME280;31601;48.042;12.240;2023-02-03T06:54:51;97211.69;;;6.62;60.52
12757;BME280;31601;48.042;12.240;2023-02-03T06:57:18;97221.31;;;6.61;60.86
12757;BME280;31601;48.042;12.240;2023-02-03T06:59:44;97229.84;;;6.83;60.40
12757;BME280;31601;48.042;12.240;2023-02-03T07:02:11;97226.81;;;6.58;60.56
12757;BME280;31601;48.042;12.240;2023-02-03T07:04:37;97226.94;;;6.57;60.29
12757;BME280;31601;48.042;12.240;2023-02-03T07:07:04;97231.31;;;6.56;60.50
12757;BME280;31601;48.042;12.240;2023-02-03T07:09:31;97228.47;;;6.79;60.04
12757;BME280;31601;48.042;12.240;2023-02-03T07:11:58;97231.31;;;6.56;60.89
12757;BME280;31601;48.042;12.240;2023-02-03T07:14:24;97230.75;;;6.53;60.77
12757;BME280;31601;48.042;12.240;2023-02-03T07:16:51;97226.00;;;6.68;61.01
12757;BME280;31601;48.042;12.240;2023-02-03T07:19:18;97224.06;;;6.79;60.54
12757;BME280;31601;48.042;12.240;2023-02-03T07:21:45;97222.78;;;6.44;60.14
12757;BME280;31601;48.042;12.240;2023-02-03T07:24:11;97217.88;;;6.61;60.61
12757;BME280;31601;48.042;12.240;2023-02-03T07:26:39;97213.09;;;6.76;60.36
12757;BME280;31601;48.042;12.240;2023-02-03T07:29:05;97203.19;;;6.70;60.51
12757;BME280;31601;48.042;12.240;2023-02-03T07:31:32;97200.59;;;6.70;60.37
12757;BME280;31601;48.042;12.240;2023-02-03T07:34:02;97198.25;;;6.76;59.64
12757;BME280;31601;48.042;12.240;2023-02-03T07:36:29;97203.91;;;7.01;59.44
12757;BME280;31601;48.042;12.240;2023-02-03T07:38:55;97200.75;;;6.88;59.23
12757;BME280;31601;48.042;12.240;2023-02-03T07:41:22;97193.47;;;6.81;59.61
12757;BME280;31601;48.042;12.240;2023-02-03T07:43:49;97181.94;;;7.04;59.62
12757;BME280;31601;48.042;12.240;2023-02-03T07:46:16;97186.75;;;7.28;58.63
12757;BME280;31601;48.042;12.240;2023-02-03T07:48:42;97176.31;;;6.79;58.33
12757;BME280;31601;48.042;12.240;2023-02-03T07:51:09;97176.56;;;6.86;58.91
12757;BME280;31601;48.042;12.240;2023-02-03T07:53:35;97183.44;;;6.96;58.90
12757;BME280;31601;48.042;12.240;2023-02-03T07:56:03;97183.16;;;7.19;58.40
12757;BME280;31601;48.042;12.240;2023-02-03T07:58:31;97180.16;;;7.14;58.54
12757;BME280;31601;48.042;12.240;2023-02-03T08:00:59;97183.16;;;6.99;57.94
12757;BME280;31601;48.042;12.240;2023-02-03T08:03:25;97184.13;;;7.18;58.19
12757;BME280;31601;48.042;12.240;2023-02-03T08:05:52;97174.22;;;7.12;58.08
12757;BME280;31601;48.042;12.240;2023-02-03T08:08:18;97171.63;;;7.22;57.44
12757;BME280;31601;48.042;12.240;2023-02-03T08:10:45;97142.38;;;7.28;57.49
12757;BME280;31601;48.042;12.240;2023-02-03T08:13:11;97132.91;;;7.07;57.31
12757;BME280;31601;48.042;12.240;2023-02-03T08:15:38;97121.59;;;7.36;56.80
12757;BME280;31601;48.042;12.240;2023-02-03T08:18:06;97130.22;;;7.37;56.71
12757;BME280;31601;48.042;12.240;2023-02-03T08:20:34;97124.88;;;7.48;56.07
12757;BME280;31601;48.042;12.240;2023-02-03T08:23:00;97138.72;;;7.48;55.81
12757;BME280;31601;48.042;12.240;2023-02-03T08:25:27;97143.63;;;7.71;55.70
12757;BME280;31601;48.042;12.240;2023-02-03T08:27:54;97158.06;;;7.65;55.81
12757;BME280;31601;48.042;12.240;2023-02-03T08:30:20;97160.91;;;7.82;55.24
12757;BME280;31601;48.042;12.240;2023-02-03T08:32:47;97154.09;;;7.61;55.52
12757;BME280;31601;48.042;12.240;2023-02-03T08:35:15;97169.94;;;7.50;55.14
12757;BME280;31601;48.042;12.240;2023-02-03T08:37:42;97168.41;;;7.57;55.02
12757;BME280;31601;48.042;12.240;2023-02-03T08:40:10;97177.31;;;7.64;54.95
12757;BME280;31601;48.042;12.240;2023-02-03T08:42:37;97170.31;;;7.55;55.71
12757;BME280;31601;48.042;12.240;2023-02-03T08:45:04;97176.81;;;7.88;54.89
12757;BME280;31601;48.042;12.240;2023-02-03T08:47:31;97189.69;;;7.62;55.44
12757;BME280;31601;48.042;12.240;2023-02-03T08:49:57;97192.13;;;7.74;55.32
12757;BME280;31601;48.042;12.240;2023-02-03T08:52:25;97180.19;;;7.61;55.44
12757;BME280;31601;48.042;12.240;2023-02-03T08:54:51;97165.19;;;7.73;54.70
12757;BME280;31601;48.042;12.240;2023-02-03T08:57:18;97168.19;;;7.78;54.61
12757;BME280;31601;48.042;12.240;2023-02-03T08:59:44;97178.63;;;8.16;54.49
12757;BME280;31601;48.042;12.240;2023-02-03T09:02:14;97182.22;;;8.15;54.06
12757;BME280;31601;48.042;12.240;2023-02-03T09:04:41;97185.78;;;8.14;53.84
12757;BME280;31601;48.042;12.240;2023-02-03T09:07:08;97179.09;;;8.29;53.46
12757;BME280;31601;48.042;12.240;2023-02-03T09:09:37;97166.81;;;8.12;53.63
12757;BME280;31601;48.042;12.240;2023-02-03T09:12:05;97145.91;;;7.84;54.06
12757;BME280;31601;48.042;12.240;2023-02-03T09:14:32;97149.81;;;7.98;54.24
12757;BME280;31601;48.042;12.240;2023-02-03T09:16:58;97146.56;;;7.86;53.86
12757;BME280;31601;48.042;12.240;2023-02-03T09:19:25;97146.63;;;8.04;53.78
12757;BME280;31601;48.042;12.240;2023-02-03T09:21:51;97154.69;;;7.83;53.89
12757;BME280;31601;48.042;12.240;2023-02-03T09:24:18;97167.41;;;8.05;53.20
12757;BME280;31601;48.042;12.240;2023-02-03T09:26:46;97159.00;;;7.74;53.40
12757;BME280;31601;48.042;12.240;2023-02-03T09:29:12;97144.94;;;7.85;54.04
12757;BME280;31601;48.042;12.240;2023-02-03T09:31:39;97155.19;;;8.24;53.02
12757;BME280;31601;48.042;12.240;2023-02-03T09:34:05;97159.50;;;8.15;53.59
12757;BME280;31601;48.042;12.240;2023-02-03T09:36:32;97150.84;;;8.15;53.41
12757;BME280;31601;48.042;12.240;2023-02-03T09:38:59;97142.03;;;8.16;52.75
12757;BME280;31601;48.042;12.240;2023-02-03T09:41:39;97131.16;;;8.38;52.52
12757;BME280;31601;48.042;12.240;2023-02-03T09:44:16;97122.28;;;8.31;52.60
12757;BME280;31601;48.042;12.240;2023-02-03T09:46:49;97134.66;;;8.29;53.08
12757;BME280;31601;48.042;12.240;2023-02-03T09:49:23;97147.28;;;8.44;52.71
12757;BME280;31601;48.042;12.240;2023-02-03T09:51:53;97148.31;;;8.23;53.13
12757;BME280;31601;48.042;12.240;2023-02-03T09:54:26;97150.91;;;8.33;52.91
12757;BME280;31601;48.042;12.240;2023-02-03T09:56:53;97141.63;;;8.38;52.29
12757;BME280;31601;48.042;12.240;2023-02-03T09:59:21;97148.16;;;8.24;52.96
12757;BME280;31601;48.042;12.240;2023-02-03T10:01:52;97138.72;;;8.14;52.69
12757;BME280;31601;48.042;12.240;2023-02-03T10:04:31;97127.31;;;8.15;52.91
12757;BME280;31601;48.042;12.240;2023-02-03T10:07:06;97131.09;;;8.30;52.97
12757;BME280;31601;48.042;12.240;2023-02-03T10:09:48;97127.06;;;8.36;53.03
12757;BME280;31601;48.042;12.240;2023-02-03T10:15:24;97124.34;;;8.28;52.90
12757;BME280;31601;48.042;12.240;2023-02-03T10:18:02;97138.69;;;8.51;52.88
12757;BME280;31601;48.042;12.240;2023-02-03T10:20:33;97126.56;;;8.50;52.86
12757;BME280;31601;48.042;12.240;2023-02-03T10:23:06;97128.84;;;8.35;53.05
12757;BME280;31601;48.042;12.240;2023-02-03T10:25:38;97124.09;;;8.49;52.73
12757;BME280;31601;48.042;12.240;2023-02-03T10:28:12;97129.09;;;8.42;52.47
12757;BME280;31601;48.042;12.240;2023-02-03T10:30:44;97137.88;;;8.69;52.20
12757;BME280;31601;48.042;12.240;2023-02-03T10:33:15;97134.00;;;8.27;52.89
12757;BME280;31601;48.042;12.240;2023-02-03T10:35:48;97133.63;;;8.50;52.37
12757;BME280;31601;48.042;12.240;2023-02-03T10:38:23;97122.47;;;8.66;51.76
12757;BME280;31601;48.042;12.240;2023-02-03T10:40:54;97137.94;;;8.59;51.97
12757;BME280;31601;48.042;12.240;2023-02-03T10:43:21;97126.13;;;8.55;51.81
12757;BME280;31601;48.042;12.240;2023-02-03T10:46:06;97122.13;;;8.33;51.88
12757;BME280;31601;48.042;12.240;2023-02-03T10:48:33;97115.38;;;8.76;51.93
12757;BME280;31601;48.042;12.240;2023-02-03T10:51:00;97122.94;;;8.79;52.16
12757;BME280;31601;48.042;12.240;2023-02-03T10:53:32;97111.91;;;8.75;51.38
12757;BME280;31601;48.042;12.240;2023-02-03T10:56:02;97109.84;;;8.79;51.31
12757;BME280;31601;48.042;12.240;2023-02-03T10:58:32;97109.59;;;8.72;50.76
12757;BME280;31601;48.042;12.240;2023-02-03T11:01:09;97109.34;;;8.57;51.91
12757;BME280;31601;48.042;12.240;2023-02-03T11:03:40;97103.19;;;8.49;52.06
12757;BME280;31601;48.042;12.240;2023-02-03T11:06:10;97108.03;;;8.80;51.41
12757;BME280;31601;48.042;12.240;2023-02-03T11:08:39;97106.38;;;8.42;51.85
12757;BME280;31601;48.042;12.240;2023-02-03T11:11:07;97101.59;;;8.38;52.03
12757;BME280;31601;48.042;12.240;2023-02-03T11:13:34;97099.13;;;8.36;51.96
12757;BME280;31601;48.042;12.240;2023-02-03T11:16:02;97094.75;;;8.73;51.20
12757;BME280;31601;48.042;12.240;2023-02-03T11:18:55;97104.44;;;8.45;52.05
12757;BME280;31601;48.042;12.240;2023-02-03T11:21:25;97107.22;;;8.61;52.36
12757;BME280;31601;48.042;12.240;2023-02-03T11:23:56;97103.66;;;8.62;51.71
12757;BME280;31601;48.042;12.240;2023-02-03T11:26:27;97115.38;;;8.58;52.00
12757;BME280;31601;48.042;12.240;2023-02-03T11:28:56;97110.53;;;8.45;51.54
12757;BME280;31601;48.042;12.240;2023-02-03T11:31:25;97104.75;;;8.59;51.29
12757;BME280;31601;48.042;12.240;2023-02-03T11:33:59;97102.00;;;8.61;51.70
12757;BME280;31601;48.042;12.240;2023-02-03T11:36:28;97091.59;;;8.69;51.40
12757;BME280;31601;48.042;12.240;2023-02-03T11:39:15;97098.78;;;8.21;51.11
12757;BME280;31601;48.042;12.240;2023-02-03T11:41:43;97100.50;;;8.76;50.94
12757;BME280;31601;48.042;12.240;2023-02-03T11:44:10;97096.03;;;9.13;50.91
12757;BME280;31601;48.042;12.240;2023-02-03T11:46:38;97094.06;;;9.15;50.59
12757;BME280;31601;48.042;12.240;2023-02-03T11:49:16;97095.44;;;9.01;50.13
12757;BME280;31601;48.042;12.240;2023-02-03T11:51:49;97076.53;;;9.07;49.81
12757;BME280;31601;48.042;12.240;2023-02-03T11:54:26;97076.00;;;9.04;50.43
12757;BME280;31601;48.042;12.240;2023-02-03T11:57:12;97062.09;;;9.29;50.49
12757;BME280;31601;48.042;12.240;2023-02-03T11:59:53;97064.50;;;9.23;50.31
12757;BME280;31601;48.042;12.240;2023-02-03T12:05:47;97060.81;;;9.07;50.21
12757;BME280;31601;48.042;12.240;2023-02-03T12:08:29;97041.88;;;9.13;49.73
12757;BME280;31601;48.042;12.240;2023-02-03T12:11:07;97034.94;;;9.04;50.17
12757;BME280;31601;48.042;12.240;2023-02-03T12:16:45;97031.97;;;8.99;49.94
12757;BME280;31601;48.042;12.240;2023-02-03T12:19:23;97031.56;;;8.86;49.92
12757;BME280;31601;48.042;12.240;2023-02-03T12:22:02;97031.44;;;8.95;49.53
12757;BME280;31601;48.042;12.240;2023-02-03T12:24:41;97019.56;;;9.01;49.97
12757;BME280;31601;48.042;12.240;2023-02-03T12:27:21;97003.22;;;8.81;49.82
12757;BME280;31601;48.042;12.240;2023-02-03T12:29:55;97004.28;;;8.88;49.68
12757;BME280;31601;48.042;12.240;2023-02-03T12:32:27;96993.06;;;9.04;50.19
12757;BME280;31601;48.042;12.240;2023-02-03T12:35:03;96983.88;;;9.00;49.96
12757;BME280;31601;48.042;12.240;2023-02-03T12:37:42;96981.63;;;9.05;49.79
12757;BME280;31601;48.042;12.240;2023-02-03T12:40:13;96968.75;;;8.86;49.91
12757;BME280;31601;48.042;12.240;2023-02-03T12:42:46;96963.69;;;9.19;48.92
12757;BME280;31601;48.042;12.240;2023-02-03T12:45:18;96955.09;;;9.00;49.86
12757;BME280;31601;48.042;12.240;2023-02-03T12:47:50;96944.22;;;9.21;49.57
12757;BME280;31601;48.042;12.240;2023-02-03T12:50:22;96936.78;;;9.43;49.74
12757;BME280;31601;48.042;12.240;2023-02-03T12:52:56;96934.94;;;9.27;50.08
12757;BME280;31601;48.042;12.240;2023-02-03T12:55:32;96933.38;;;9.50;48.96
12757;BME280;31601;48.042;12.240;2023-02-03T12:58:02;96949.25;;;9.49;48.95
12757;BME280;31601;48.042;12.240;2023-02-03T13:00:37;96938.84;;;9.31;48.50
12757;BME280;31601;48.042;12.240;2023-02-03T13:03:13;96939.66;;;9.23;49.11
12757;BME280;31601;48.042;12.240;2023-02-03T13:05:43;96933.41;;;9.16;49.87
12757;BME280;31601;48.042;12.240;2023-02-03T13:08:21;96931.84;;;9.40;48.83
12757;BME280;31601;48.042;12.240;2023-02-03T13:10:51;96928.34;;;9.23;49.19
12757;BME280;31601;48.042;12.240;2023-02-03T13:13:24;96905.28;;;9.18;48.54
12757;BME280;31601;48.042;12.240;2023-02-03T13:15:55;96917.63;;;9.42;48.62
12757;BME280;31601;48.042;12.240;2023-02-03T13:18:25;96907.59;;;9.29;48.75
12757;BME280;31601;48.042;12.240;2023-02-03T13:20:54;96921.88;;;9.43;48.72
12757;BME280;31601;48.042;12.240;2023-02-03T13:23:23;96916.63;;;9.35;49.00
12757;BME280;31601;48.042;12.240;2023-02-03T13:26:06;96925.34;;;9.09;48.98
12757;BME280;31601;48.042;12.240;2023-02-03T13:29:06;96917.44;;;8.93;49.60
12757;BME280;31601;48.042;12.240;2023-02-03T13:31:42;96929.19;;;8.89;49.94